createdAt,value
2019-02-28T00:02:01.745Z,13.03
2019-02-28T00:04:32.809Z,16.43
2019-02-28T00:06:59.774Z,15.83
2019-02-28T00:09:27.913Z,15.60
2019-02-28T00:11:56.068Z,18.13
2019-02-28T00:14:27.111Z,14.93
2019-02-28T00:16:54.252Z,17.07
2019-02-28T00:19:23.991Z,17.20
2019-02-28T00:21:52.645Z,14.47
2019-02-28T00:24:20.782Z,14.17
2019-02-28T00:26:48.966Z,12.00
2019-02-28T00:29:17.210Z,12.83
2019-02-28T00:31:49.533Z,16.23
2019-02-28T00:34:15.206Z,13.10
2019-02-28T00:36:43.723Z,14.77
2019-02-28T00:39:11.861Z,14.97
2019-02-28T00:41:42.983Z,13.50
2019-02-28T00:44:10.321Z,13.43
2019-02-28T00:46:44.004Z,14.37
2019-02-28T00:49:08.310Z,11.40
2019-02-28T00:51:36.486Z,12.33
2019-02-28T00:54:04.634Z,13.07
2019-02-28T00:56:32.774Z,13.60
2019-02-28T00:59:01.224Z,12.60
2019-02-28T01:01:29.443Z,13.50
2019-02-28T01:03:58.292Z,11.57
2019-02-28T01:06:27.406Z,14.43
2019-02-28T01:08:56.038Z,17.37
2019-02-28T01:11:24.974Z,16.13
2019-02-28T01:13:53.250Z,12.17
2019-02-28T01:16:21.402Z,11.90
2019-02-28T01:18:49.575Z,12.03
2019-02-28T01:21:18.063Z,12.17
2019-02-28T01:23:46.222Z,14.57
2019-02-28T01:26:14.399Z,17.23
2019-02-28T01:28:42.730Z,14.70
2019-02-28T01:31:11.612Z,12.60
2019-02-28T01:33:40.374Z,14.63
2019-02-28T01:36:08.532Z,13.00
2019-02-28T01:38:36.705Z,17.90
2019-02-28T01:41:04.846Z,15.13
2019-02-28T01:43:33.351Z,12.00
2019-02-28T01:46:01.483Z,13.93
2019-02-28T01:48:29.622Z,12.53
2019-02-28T01:51:00.811Z,13.33
2019-02-28T01:53:27.610Z,10.47
2019-02-28T01:55:55.722Z,17.33
2019-02-28T01:58:24.001Z,12.93
2019-02-28T02:00:53.590Z,10.47
2019-02-28T02:03:21.902Z,13.23
2019-02-28T02:05:51.708Z,13.77
2019-02-28T02:08:19.831Z,14.97
2019-02-28T02:10:47.973Z,12.10
2019-02-28T02:13:16.328Z,14.03
2019-02-28T02:15:44.458Z,15.97
2019-02-28T02:18:12.585Z,16.20
2019-02-28T02:20:40.869Z,14.20
2019-02-28T02:23:08.981Z,14.00
2019-02-28T02:25:38.188Z,13.20
2019-02-28T02:28:06.853Z,13.23
2019-02-28T02:30:34.971Z,12.60
2019-02-28T02:33:03.397Z,13.63
2019-02-28T02:35:31.829Z,15.77
2019-02-28T02:38:03.460Z,14.97
2019-02-28T02:40:29.770Z,14.23
2019-02-28T02:42:57.938Z,16.00
2019-02-28T02:45:26.058Z,17.33
2019-02-28T02:47:54.170Z,14.93
2019-02-28T02:50:22.353Z,14.43
2019-02-28T02:52:50.532Z,14.83
2019-02-28T02:55:18.682Z,14.30
2019-02-28T02:57:50.474Z,13.57
2019-02-28T03:00:17.320Z,14.00
2019-02-28T03:02:45.694Z,14.60
2019-02-28T03:05:14.082Z,14.23
2019-02-28T03:07:42.348Z,15.90
2019-02-28T03:10:12.057Z,14.00
2019-02-28T03:12:40.527Z,12.07
2019-02-28T03:15:10.031Z,15.67
2019-02-28T03:17:38.190Z,15.43
2019-02-28T03:20:08.863Z,14.93
2019-02-28T03:22:37.079Z,19.50
2019-02-28T03:25:06.380Z,15.50
2019-02-28T03:27:34.686Z,16.07
2019-02-28T03:30:02.863Z,12.97
2019-02-28T03:32:39.744Z,12.87
2019-02-28T03:35:01.273Z,15.10
2019-02-28T03:37:33.320Z,15.07
2019-02-28T03:40:04.239Z,14.73
2019-02-28T03:42:30.088Z,14.30
2019-02-28T03:44:58.427Z,16.10
2019-02-28T03:47:26.568Z,14.60
2019-02-28T03:49:54.734Z,14.33
2019-02-28T03:52:22.890Z,13.40
2019-02-28T03:54:51.050Z,14.13
2019-02-28T03:57:19.310Z,16.27
2019-02-28T03:59:55.355Z,13.97
2019-02-28T04:02:22.235Z,16.43
2019-02-28T04:04:49.971Z,14.60
2019-02-28T04:07:17.151Z,15.23
2019-02-28T04:09:45.444Z,15.53
2019-02-28T04:12:13.980Z,15.33
2019-02-28T04:14:42.131Z,16.37
2019-02-28T04:17:10.276Z,16.10
2019-02-28T04:19:38.696Z,15.90
2019-02-28T04:22:06.830Z,15.80
2019-02-28T04:24:35.045Z,12.60
2019-02-28T04:27:07.012Z,14.63
2019-02-28T04:29:33.243Z,13.00
2019-02-28T04:32:01.403Z,14.40
2019-02-28T04:34:29.636Z,17.63
2019-02-28T04:36:57.766Z,14.00
2019-02-28T04:39:25.946Z,16.87
2019-02-28T04:41:54.291Z,13.20
2019-02-28T04:44:22.442Z,15.53
2019-02-28T04:46:50.582Z,19.43
2019-02-28T04:49:21.835Z,14.97
2019-02-28T04:51:48.586Z,16.37
2019-02-28T04:54:16.746Z,14.00
2019-02-28T04:56:45.570Z,19.40
2019-02-28T04:59:14.692Z,16.20
2019-02-28T05:01:45.218Z,17.67
2019-02-28T05:04:12.717Z,13.87
2019-02-28T05:06:40.858Z,15.30
2019-02-28T05:09:10.778Z,13.33
2019-02-28T05:11:39.018Z,15.70
2019-02-28T05:14:07.173Z,14.03
2019-02-28T05:16:35.315Z,15.10
2019-02-28T05:19:03.653Z,14.10
2019-02-28T05:21:31.806Z,14.77
2019-02-28T05:23:59.957Z,12.87
2019-02-28T05:26:28.269Z,15.17
2019-02-28T05:28:56.410Z,16.03
2019-02-28T05:31:27.127Z,16.07
2019-02-28T05:33:54.430Z,15.53
2019-02-28T05:36:22.601Z,17.03
2019-02-28T05:38:53.543Z,17.60
2019-02-28T05:41:20.695Z,16.43
2019-02-28T05:43:48.849Z,15.03
2019-02-28T05:46:17.010Z,13.33
2019-02-28T05:48:45.182Z,13.93
2019-02-28T05:51:13.334Z,13.10
2019-02-28T05:53:42.693Z,14.43
2019-02-28T05:56:11.026Z,17.27
2019-02-28T05:58:39.174Z,15.10
2019-02-28T06:01:08.802Z,13.27
2019-02-28T06:03:37.317Z,15.50
2019-02-28T06:06:05.464Z,14.37
2019-02-28T06:08:35.510Z,12.73
2019-02-28T06:11:03.699Z,12.43
2019-02-28T06:13:31.851Z,17.57
2019-02-28T06:15:59.994Z,14.80
2019-02-28T06:18:32.679Z,15.83
2019-02-28T06:20:58.218Z,15.90
2019-02-28T06:23:26.345Z,17.20
2019-02-28T06:25:55.747Z,13.10
2019-02-28T06:28:27.635Z,20.23
2019-02-28T06:30:54.433Z,16.03
2019-02-28T06:33:23.007Z,16.07
2019-02-28T06:35:53.701Z,16.33
2019-02-28T06:38:21.026Z,15.70
2019-02-28T06:40:49.253Z,13.30
2019-02-28T06:43:18.731Z,14.37
2019-02-28T06:45:47.254Z,14.57
2019-02-28T06:48:15.704Z,16.93
2019-02-28T06:50:44.732Z,16.17
2019-02-28T06:53:13.674Z,15.37
2019-02-28T06:55:47.660Z,13.93
2019-02-28T06:58:15.922Z,14.83
2019-02-28T07:00:44.168Z,14.77
2019-02-28T07:03:13.993Z,15.10
2019-02-28T07:05:42.142Z,12.10
2019-02-28T07:08:10.317Z,13.93
2019-02-28T07:10:38.620Z,13.50
2019-02-28T07:13:06.761Z,15.53
2019-02-28T07:15:34.916Z,15.17
2019-02-28T07:18:03.237Z,16.50
2019-02-28T07:20:34.975Z,15.37
2019-02-28T07:23:01.255Z,16.97
2019-02-28T07:25:29.667Z,13.33
2019-02-28T07:28:01.581Z,14.50
2019-02-28T07:30:27.680Z,17.37
2019-02-28T07:32:56.033Z,19.27
2019-02-28T07:35:24.772Z,14.90
2019-02-28T07:37:54.361Z,17.23
2019-02-28T07:40:22.889Z,16.43
2019-02-28T07:42:51.030Z,14.13
2019-02-28T07:45:19.174Z,20.97
2019-02-28T07:47:51.667Z,15.43
2019-02-28T07:50:17.373Z,17.70
2019-02-28T07:52:45.540Z,18.27
2019-02-28T07:55:14.388Z,18.33
2019-02-28T07:57:42.541Z,14.23
2019-02-28T08:00:18.308Z,18.30
2019-02-28T08:02:45.121Z,17.63
2019-02-28T08:05:13.500Z,16.13
2019-02-28T08:07:41.705Z,18.87
2019-02-28T08:10:12.773Z,18.17
2019-02-28T08:12:41.491Z,19.27
2019-02-28T08:15:11.175Z,16.17
2019-02-28T08:17:40.640Z,14.63
2019-02-28T08:20:09.466Z,15.97
2019-02-28T08:22:37.608Z,19.73
2019-02-28T08:25:08.598Z,23.43
2019-02-28T08:27:36.962Z,17.67
2019-02-28T08:30:12.756Z,16.73
2019-02-28T08:32:43.920Z,25.87
2019-02-28T08:35:11.973Z,23.43
2019-02-28T08:37:40.122Z,19.67
2019-02-28T08:40:12.602Z,13.93
2019-02-28T08:42:39.837Z,15.30
2019-02-28T08:45:10.827Z,17.53
2019-02-28T08:47:39.082Z,16.03
2019-02-28T08:50:19.117Z,17.82
2019-02-28T08:52:44.342Z,17.62
2019-02-28T08:55:13.555Z,17.05
2019-02-28T08:57:41.704Z,13.28
2019-02-28T09:00:11.618Z,14.00
2019-02-28T09:02:39.766Z,16.23
2019-02-28T09:05:08.558Z,23.27
2019-02-28T09:07:37.218Z,19.52
2019-02-28T09:10:11.736Z,18.25
2019-02-28T09:12:37.097Z,15.93
2019-02-28T09:15:06.476Z,12.53
2019-02-28T09:17:34.607Z,14.78
2019-02-28T09:20:02.748Z,16.10
2019-02-28T09:22:30.949Z,18.23
2019-02-28T09:24:59.090Z,20.05
2019-02-28T09:27:27.242Z,15.55
2019-02-28T09:29:55.646Z,15.72
2019-02-28T09:32:23.917Z,16.32
2019-02-28T09:34:52.846Z,17.42
2019-02-28T09:37:21.026Z,17.67
2019-02-28T09:39:51.330Z,14.05
2019-02-28T09:42:19.398Z,16.85
2019-02-28T09:44:47.545Z,20.68
2019-02-28T09:47:15.750Z,15.48
2019-02-28T09:49:44.266Z,15.53
2019-02-28T09:52:13.842Z,18.87
2019-02-28T09:54:42.137Z,18.00
2019-02-28T09:57:10.505Z,16.95
2019-02-28T09:59:38.726Z,17.40
2019-02-28T10:02:08.429Z,15.45
2019-02-28T10:04:37.127Z,20.35
2019-02-28T10:07:05.261Z,19.77
2019-02-28T10:09:33.397Z,17.42
2019-02-28T10:12:04.591Z,15.30
2019-02-28T10:14:31.588Z,16.50
2019-02-28T10:16:59.781Z,19.42
2019-02-28T10:19:28.464Z,17.98
2019-02-28T10:21:56.621Z,17.52
2019-02-28T10:24:24.823Z,21.73
2019-02-28T10:26:53.223Z,31.30
2019-02-28T10:29:21.361Z,28.52
2019-02-28T10:31:49.516Z,23.90
2019-02-28T10:34:17.937Z,26.73
2019-02-28T10:36:47.975Z,21.48
2019-02-28T10:39:16.162Z,27.65
2019-02-28T10:41:44.802Z,22.17
2019-02-28T10:44:12.958Z,23.12
2019-02-28T10:46:41.137Z,27.70
2019-02-28T10:49:09.384Z,22.93
2019-02-28T10:51:37.518Z,21.25
2019-02-28T10:54:05.672Z,23.25
2019-02-28T10:56:34.133Z,21.20
2019-02-28T10:59:02.341Z,25.27
2019-02-28T11:01:30.506Z,24.63
2019-02-28T11:04:00.207Z,23.25
2019-02-28T11:06:28.911Z,21.17
2019-02-28T11:08:57.190Z,22.15
2019-02-28T11:11:25.593Z,23.00
2019-02-28T11:13:53.733Z,21.73
2019-02-28T11:16:23.640Z,24.10
2019-02-28T11:18:51.879Z,27.13
2019-02-28T11:21:20.090Z,24.30
2019-02-28T11:23:50.062Z,24.67
2019-02-28T11:26:18.456Z,24.37
2019-02-28T11:28:46.634Z,26.70
2019-02-28T11:31:16.379Z,25.90
2019-02-28T11:33:45.045Z,27.32
2019-02-28T11:36:13.338Z,28.40
2019-02-28T11:38:41.910Z,27.42
2019-02-28T11:41:10.286Z,34.08
2019-02-28T11:43:38.685Z,28.52
2019-02-28T11:46:07.145Z,32.30
2019-02-28T11:48:35.376Z,33.85
2019-02-28T11:51:03.703Z,27.73
2019-02-28T11:53:31.839Z,34.10
2019-02-28T11:56:00.118Z,35.83
2019-02-28T11:58:30.373Z,32.05
2019-02-28T12:00:58.216Z,34.40
2019-02-28T12:03:26.974Z,28.05
2019-02-28T12:05:55.130Z,29.42
2019-02-28T12:08:23.259Z,34.75
2019-02-28T12:10:51.806Z,29.75
2019-02-28T12:13:20.639Z,28.05
2019-02-28T12:15:48.904Z,31.55
2019-02-28T12:18:17.212Z,25.00
2019-02-28T12:20:45.360Z,24.35
2019-02-28T12:23:13.509Z,22.90
2019-02-28T12:25:42.921Z,26.12
2019-02-28T12:28:11.760Z,24.32
2019-02-28T12:30:40.332Z,24.82
2019-02-28T12:33:08.548Z,22.67
2019-02-28T12:35:40.380Z,26.62
2019-02-28T12:38:06.849Z,20.75
2019-02-28T12:40:38.753Z,23.95
2019-02-28T12:43:08.659Z,24.65
2019-02-28T12:45:38.371Z,22.80
2019-02-28T12:48:06.798Z,24.82
2019-02-28T12:50:35.040Z,22.40
2019-02-28T12:53:03.524Z,20.05
2019-02-28T12:55:31.729Z,23.12
2019-02-28T12:58:00.006Z,20.43
2019-02-28T13:00:29.691Z,20.32
2019-02-28T13:02:57.933Z,21.07
2019-02-28T13:05:26.213Z,20.85
2019-02-28T13:07:54.451Z,21.97
2019-02-28T13:10:26.806Z,20.55
2019-02-28T13:12:52.909Z,18.75
2019-02-28T13:15:21.318Z,20.57
2019-02-28T13:17:49.745Z,21.05
2019-02-28T13:20:19.433Z,23.45
2019-02-28T13:22:47.601Z,21.37
2019-02-28T13:25:15.938Z,18.73
2019-02-28T13:27:45.238Z,19.02
2019-02-28T13:30:20.924Z,18.37
2019-02-28T13:32:49.080Z,17.82
2019-02-28T13:35:25.307Z,18.45
2019-02-28T13:37:53.643Z,18.27
2019-02-28T13:40:22.294Z,16.65
2019-02-28T13:42:50.729Z,19.48
2019-02-28T13:45:23.041Z,17.48
2019-02-28T13:47:49.474Z,17.02
2019-02-28T13:50:22.089Z,15.93
2019-02-28T13:52:52.691Z,16.20
2019-02-28T13:55:21.433Z,14.05
2019-02-28T13:57:49.877Z,15.85
2019-02-28T14:00:20.326Z,14.30
2019-02-28T14:02:48.663Z,16.42
2019-02-28T14:05:17.156Z,12.28
2019-02-28T14:07:45.310Z,17.15
2019-02-28T14:10:14.442Z,13.30
2019-02-28T14:12:42.789Z,17.35
2019-02-28T14:15:16.827Z,16.73
2019-02-28T14:17:45.076Z,16.75
2019-02-28T14:20:13.495Z,18.30
2019-02-28T14:22:42.712Z,13.95
2019-02-28T14:25:11.912Z,17.23
2019-02-28T14:27:40.234Z,17.77
2019-02-28T14:30:12.691Z,14.43
2019-02-28T14:32:42.320Z,17.23
2019-02-28T14:35:11.557Z,16.57
2019-02-28T14:37:39.835Z,15.63
2019-02-28T14:40:09.737Z,16.82
2019-02-28T14:42:40.757Z,18.02
2019-02-28T14:45:14.272Z,15.63
2019-02-28T14:47:42.525Z,14.07
2019-02-28T14:50:11.764Z,15.10
2019-02-28T14:52:40.389Z,19.62
2019-02-28T14:55:13.237Z,19.65
2019-02-28T14:57:41.513Z,22.58
2019-02-28T15:00:23.420Z,15.32
2019-02-28T15:02:51.738Z,22.48
2019-02-28T15:05:20.478Z,19.27
2019-02-28T15:07:49.730Z,17.52
2019-02-28T15:10:22.439Z,18.15
2019-02-28T15:12:50.658Z,16.37
2019-02-28T15:15:21.865Z,17.20
2019-02-28T15:17:50.222Z,15.03
2019-02-28T15:20:18.442Z,19.55
2019-02-28T15:22:46.661Z,18.82
2019-02-28T15:25:18.677Z,17.05
2019-02-28T15:27:45.705Z,15.95
2019-02-28T15:30:17.933Z,16.55
2019-02-28T15:32:46.181Z,16.77
2019-02-28T15:35:15.977Z,17.48
2019-02-28T15:37:44.130Z,16.12
2019-02-28T15:40:32.440Z,17.42
2019-02-28T15:43:00.649Z,15.75
2019-02-28T15:45:28.846Z,14.43
2019-02-28T15:47:59.022Z,16.55
2019-02-28T15:50:27.307Z,18.85
2019-02-28T15:52:55.614Z,16.20
2019-02-28T15:55:24.206Z,14.20
2019-02-28T15:57:52.424Z,17.42
2019-02-28T16:00:24.838Z,19.62
2019-02-28T16:02:53.189Z,17.65
2019-02-28T16:05:21.426Z,18.02
2019-02-28T16:07:50.545Z,15.53
2019-02-28T16:10:23.330Z,17.32
2019-02-28T16:12:51.531Z,17.73
2019-02-28T16:15:19.671Z,16.60
2019-02-28T16:17:48.133Z,17.35
2019-02-28T16:20:16.971Z,19.60
2019-02-28T16:22:45.566Z,16.52
2019-02-28T16:25:15.748Z,18.25
2019-02-28T16:27:44.061Z,17.65
2019-02-28T16:30:13.502Z,16.60
2019-02-28T16:32:41.802Z,19.25
2019-02-28T16:35:10.086Z,17.02
2019-02-28T16:37:38.334Z,21.73
2019-02-28T16:40:08.606Z,17.60
2019-02-28T16:42:36.753Z,20.52
2019-02-28T16:45:06.836Z,18.05
2019-02-28T16:47:35.256Z,17.85
2019-02-28T16:50:03.996Z,16.32
2019-02-28T16:52:32.130Z,17.67
2019-02-28T16:55:00.476Z,17.92
2019-02-28T16:57:28.624Z,17.07
2019-02-28T16:59:56.784Z,20.00
2019-02-28T17:02:26.429Z,18.12
2019-02-28T17:04:54.681Z,18.60
2019-02-28T17:07:22.834Z,19.70
2019-02-28T17:09:51.162Z,19.37
2019-02-28T17:12:29.603Z,23.22
2019-02-28T17:14:57.810Z,21.65
2019-02-28T17:17:28.958Z,21.52
2019-02-28T17:19:57.210Z,18.20
2019-02-28T17:22:27.115Z,21.40
2019-02-28T17:24:55.435Z,20.60
2019-02-28T17:27:27.780Z,18.45
2019-02-28T17:30:00.755Z,19.77
2019-02-28T17:32:31.330Z,19.65
2019-02-28T17:34:59.693Z,20.88
2019-02-28T17:37:28.130Z,17.85
2019-02-28T17:39:56.433Z,19.20
2019-02-28T17:42:24.653Z,19.37
2019-02-28T17:44:57.433Z,20.72
2019-02-28T17:47:33.128Z,22.22
2019-02-28T17:50:17.999Z,18.90
2019-02-28T17:52:50.665Z,22.20
2019-02-28T17:55:38.733Z,21.73
2019-02-28T17:58:08.410Z,20.08
2019-02-28T18:00:48.159Z,21.95
2019-02-28T18:03:25.813Z,19.32
2019-02-28T18:05:58.824Z,20.02
2019-02-28T18:08:37.596Z,18.20
2019-02-28T18:11:22.533Z,19.42
2019-02-28T18:14:07.250Z,19.40
2019-02-28T18:16:42.882Z,23.30
2019-02-28T18:19:19.435Z,19.73
2019-02-28T18:22:06.610Z,18.77
2019-02-28T18:24:41.156Z,18.27
2019-02-28T18:27:13.465Z,26.93
2019-02-28T18:29:59.843Z,23.83
2019-02-28T18:32:29.837Z,19.00
2019-02-28T18:34:58.186Z,23.62
2019-02-28T18:37:26.442Z,20.88
2019-02-28T18:39:54.954Z,21.55
2019-02-28T18:42:23.122Z,24.15
2019-02-28T18:44:51.271Z,21.30
2019-02-28T18:47:19.578Z,22.42
2019-02-28T18:49:47.735Z,22.20
2019-02-28T18:52:15.959Z,19.62
2019-02-28T18:54:44.262Z,18.48
2019-02-28T18:57:12.414Z,18.17
2019-02-28T18:59:40.586Z,22.50
2019-02-28T19:02:08.861Z,21.60
2019-02-28T19:04:37.042Z,21.40
2019-02-28T19:07:05.302Z,19.15
2019-02-28T19:09:33.591Z,22.52
2019-02-28T19:12:01.799Z,20.05
2019-02-28T19:14:29.970Z,22.35
2019-02-28T19:16:58.121Z,21.05
2019-02-28T19:19:26.298Z,21.48
2019-02-28T19:21:54.450Z,21.35
2019-02-28T19:24:22.878Z,18.55
2019-02-28T19:26:51.038Z,21.93
2019-02-28T19:29:19.218Z,21.97
2019-02-28T19:31:47.612Z,20.48
2019-02-28T19:34:15.862Z,19.40
2019-02-28T19:36:44.024Z,22.95
2019-02-28T19:39:12.545Z,21.07
2019-02-28T19:41:41.050Z,21.77
2019-02-28T19:46:47.620Z,18.75
2019-02-28T19:49:15.766Z,20.75
2019-02-28T19:51:43.906Z,20.10
2019-02-28T19:54:12.169Z,21.37
2019-02-28T19:56:40.454Z,18.40
2019-02-28T19:59:27.990Z,18.73
2019-02-28T20:01:57.262Z,19.35
2019-02-28T20:04:44.925Z,19.45
2019-02-28T20:07:14.860Z,18.90
2019-02-28T20:09:43.103Z,19.92
2019-02-28T20:12:11.393Z,17.07
2019-02-28T20:14:39.526Z,18.77
2019-02-28T20:17:07.673Z,17.67
2019-02-28T20:19:35.987Z,20.30
2019-02-28T20:22:04.594Z,18.40
2019-02-28T20:24:32.761Z,18.77
2019-02-28T20:27:01.039Z,22.95
2019-02-28T20:29:29.182Z,19.52
2019-02-28T20:31:57.331Z,18.82
2019-02-28T20:34:25.562Z,18.37
2019-02-28T20:36:53.772Z,18.25
2019-02-28T20:39:21.918Z,16.67
2019-02-28T20:41:50.211Z,17.90
2019-02-28T20:44:18.349Z,15.63
2019-02-28T20:46:46.502Z,20.02
2019-02-28T20:49:14.678Z,15.98
2019-02-28T20:51:42.840Z,20.43
2019-02-28T20:54:10.995Z,15.90
2019-02-28T20:56:39.214Z,17.50
2019-02-28T20:59:07.364Z,15.23
2019-02-28T21:01:35.506Z,16.80
2019-02-28T21:04:03.961Z,16.32
2019-02-28T21:06:32.113Z,16.45
2019-02-28T21:09:00.247Z,16.45
2019-02-28T21:11:28.532Z,14.58
2019-02-28T21:13:56.685Z,14.03
2019-02-28T21:16:44.182Z,17.35
2019-02-28T21:19:12.320Z,13.30
2019-02-28T21:21:40.458Z,16.35
2019-02-28T21:24:08.821Z,14.63
2019-02-28T21:26:36.969Z,13.85
2019-02-28T21:29:05.124Z,14.43
2019-02-28T21:31:33.361Z,14.90
2019-02-28T21:34:01.504Z,18.33
2019-02-28T21:36:29.645Z,16.07
2019-02-28T21:38:57.853Z,17.42
2019-02-28T21:41:26.056Z,17.23
2019-02-28T21:43:54.210Z,17.02
2019-02-28T21:46:22.407Z,18.15
2019-02-28T21:48:50.530Z,20.77
2019-02-28T21:51:18.670Z,19.95
2019-02-28T21:53:46.985Z,21.40
2019-02-28T21:56:15.164Z,19.32
2019-02-28T21:58:43.330Z,19.17
2019-02-28T22:01:11.702Z,20.23
2019-02-28T22:03:39.855Z,19.10
2019-02-28T22:06:08.012Z,21.75
2019-02-28T22:08:36.240Z,24.25
2019-02-28T22:14:16.627Z,21.40
2019-02-28T22:16:44.786Z,21.73
2019-02-28T22:19:12.937Z,21.57
2019-02-28T22:21:41.327Z,21.75
2019-02-28T22:24:09.461Z,19.32
2019-02-28T22:26:37.610Z,19.52
2019-02-28T22:29:05.910Z,20.62
2019-02-28T22:34:12.368Z,20.00
2019-02-28T22:36:41.750Z,20.90
2019-02-28T22:39:10.221Z,20.02
2019-02-28T22:41:38.519Z,18.87
2019-02-28T22:44:06.672Z,20.00
2019-02-28T22:46:34.867Z,16.05
2019-02-28T22:49:03.323Z,18.50
2019-02-28T22:51:31.482Z,16.35
2019-02-28T22:53:59.680Z,15.90
2019-02-28T22:56:28.181Z,19.20
2019-02-28T22:58:56.336Z,17.52
2019-02-28T23:01:25.120Z,16.02
2019-02-28T23:03:53.474Z,14.90
2019-02-28T23:06:21.643Z,15.23
2019-02-28T23:08:49.867Z,15.13
2019-02-28T23:11:18.157Z,15.90
2019-02-28T23:13:46.309Z,15.75
2019-02-28T23:16:14.462Z,12.07
2019-02-28T23:18:42.752Z,16.75
2019-02-28T23:21:10.887Z,14.63
2019-02-28T23:23:39.026Z,14.55
2019-02-28T23:26:08.407Z,12.53
2019-02-28T23:28:38.070Z,12.78
2019-02-28T23:31:16.953Z,14.27
2019-02-28T23:33:45.968Z,12.13
2019-02-28T23:36:14.116Z,12.50
2019-02-28T23:38:42.265Z,15.05
2019-02-28T23:41:10.622Z,12.78
2019-02-28T23:43:38.834Z,16.30
2019-02-28T23:46:07.010Z,11.77
2019-02-28T23:48:35.243Z,13.70
2019-02-28T23:51:03.535Z,15.55
2019-02-28T23:53:31.702Z,16.87
2019-02-28T23:56:00.023Z,17.85
2019-02-28T23:58:28.183Z,12.37
